Time;durP1;ratioP1;P1;durP2;ratioP2;P2;SDS_P1;SDS_P2;PMS_P1;PMS_P2;Temp;Humidity;BMP_temperature;BMP_pressure;BME280_temperature;BME280_humidity;BME280_pressure;Samples;Min_cycle;Max_cycle;Signal;HPM_P1;HPM_P2
2023/10/07 00:00:40;;;;;;;6.13;2.80;;;;;;;13.52;100.00;98965.63;6110561;19;20034;-72
2023/10/07 00:02:41;;;;;;;6.28;2.65;;;;;;;13.48;100.00;98960.81;6111173;19;19999;-72
2023/10/07 00:04:44;;;;;;;7.05;2.72;;;;;;;13.55;100.00;98959.28;6112631;19;20030;-72
2023/10/07 00:06:45;;;;;;;;;;;;;;;13.60;100.00;98961.72;6113057;19;20006;-72
2023/10/07 00:08:46;;;;;;;6.80;2.58;;;;;;;13.52;100.00;98955.31;6112186;19;19914;-72
2023/10/07 00:10:49;;;;;;;5.13;2.85;;;;;;;13.46;100.00;98952.06;6109453;19;20006;-72
2023/10/07 00:12:51;;;;;;;5.85;2.88;;;;;;;13.44;100.00;98948.88;6113080;19;21606;-72
2023/10/07 00:14:52;;;;;;;;;;;;;;;13.43;100.00;98952.84;6112456;19;20051;-72
2023/10/07 00:16:54;;;;;;;5.05;2.88;;;;;;;13.36;100.00;98952.78;6112745;19;19911;-72
2023/10/07 00:18:54;;;;;;;8.00;2.80;;;;;;;13.30;100.00;98959.88;6111288;19;20035;-72
2023/10/07 00:20:55;;;;;;;6.07;2.40;;;;;;;13.27;100.00;98960.66;6111106;19;20072;-72
2023/10/07 00:23:00;;;;;;;5.78;3.08;;;;;;;13.23;100.00;98959.81;6111249;19;20478;-72
2023/10/07 00:25:01;;;;;;;6.22;3.03;;;;;;;13.17;100.00;98953.81;6111989;19;20042;-72
2023/10/07 00:27:01;;;;;;;4.72;2.60;;;;;;;13.11;100.00;98960.09;6111505;19;20006;-72
2023/10/07 00:29:01;;;;;;;7.03;2.50;;;;;;;13.04;100.00;98948.91;6111974;19;20024;-72
2023/10/07 00:31:06;;;;;;;7.93;3.30;;;;;;;13.05;100.00;98947.72;6109235;19;20017;-72
2023/10/07 00:33:09;;;;;;;5.82;2.70;;;;;;;13.01;100.00;98949.69;6111913;19;20492;-72
2023/10/07 00:35:11;;;;;;;6.68;3.42;;;;;;;13.02;100.00;98948.50;6110450;19;20509;-72
2023/10/07 00:37:15;;;;;;;5.70;2.97;;;;;;;13.04;100.00;98944.16;6110878;19;20462;-72
2023/10/07 00:39:21;;;;;;;5.72;2.92;;;;;;;13.04;100.00;98946.13;6111615;19;20383;-72
2023/10/07 00:41:24;;;;;;;6.22;3.08;;;;;;;13.06;100.00;98939.00;6111003;19;20022;-72
2023/10/07 00:43:26;;;;;;;5.38;2.60;;;;;;;13.04;100.00;98938.59;6112352;19;20007;-72
2023/10/07 00:45:28;;;;;;;6.23;3.53;;;;;;;13.03;100.00;98941.75;6111280;19;20017;-72
2023/10/07 00:47:29;;;;;;;5.47;3.25;;;;;;;13.08;100.00;98952.53;6111723;19;20588;-72
2023/10/07 00:49:39;;;;;;;6.38;3.00;;;;;;;13.06;100.00;98955.66;6100208;19;20010;-72
2023/10/07 00:51:45;;;;;;;7.05;3.05;;;;;;;13.05;100.00;98956.84;6109431;19;20034;-72
2023/10/07 00:53:49;;;;;;;7.38;3.17;;;;;;;13.12;100.00;98954.16;6110672;19;20375;-72
2023/10/07 00:55:52;;;;;;;5.75;3.00;;;;;;;13.09;100.00;98948.56;6111253;19;20011;-72
2023/10/07 01:02:30;;;;;;;7.47;2.80;;;;;;;12.92;100.00;98936.91;6109892;19;20023;-72
2023/10/07 01:04:40;;;;;;;6.15;2.83;;;;;;;12.89;100.00;98946.00;6111403;19;20477;-72
2023/10/07 01:06:45;;;;;;;4.70;2.60;;;;;;;12.89;100.00;98951.56;6111428;19;20010;-72
2023/10/07 01:08:49;;;;;;;5.03;2.90;;;;;;;12.84;100.00;98946.34;6108437;19;20006;-72
2023/10/07 01:10:55;;;;;;;6.95;2.30;;;;;;;12.81;100.00;98949.09;6106884;19;20006;-72
2023/10/07 01:12:56;;;;;;;4.43;2.50;;;;;;;12.76;100.00;98955.00;6110371;19;20025;-72
2023/10/07 01:14:57;;;;;;;9.75;3.33;;;;;;;12.71;100.00;98955.34;6110622;19;20463;-72
2023/10/07 01:17:00;;;;;;;4.85;2.70;;;;;;;12.69;100.00;98947.38;6111277;19;20078;-72
2023/10/07 01:19:18;;;;;;;;;;;;;;;12.70;100.00;98960.09;6111915;19;20321;-72
2023/10/07 01:21:31;;;;;;;6.53;2.67;;;;;;;12.73;100.00;98950.19;6109488;19;19927;-72
2023/10/07 01:23:34;;;;;;;6.75;3.00;;;;;;;12.73;100.00;98962.09;6110176;19;20010;-72
2023/10/07 01:25:37;;;;;;;8.20;3.20;;;;;;;12.69;100.00;98957.69;6109852;19;20394;-72
2023/10/07 01:27:50;;;;;;;6.80;2.92;;;;;;;12.73;100.00;98959.31;6109305;19;20044;-72
2023/10/07 01:29:59;;;;;;;9.63;3.38;;;;;;;12.72;100.00;98954.94;6109460;19;20003;-72
2023/10/07 01:32:03;;;;;;;6.90;3.00;;;;;;;12.76;100.00;98958.56;6109205;19;20036;-72
2023/10/07 01:34:07;;;;;;;6.65;3.13;;;;;;;12.80;100.00;98964.94;6108841;19;20007;-72
2023/10/07 01:36:16;;;;;;;6.38;2.85;;;;;;;12.80;100.00;98964.94;6108854;19;19995;-72
2023/10/07 01:38:18;;;;;;;4.82;3.20;;;;;;;12.78;100.00;98955.41;6109512;19;20009;-72
2023/10/07 01:40:18;;;;;;;7.30;3.50;;;;;;;12.77;100.00;98964.94;6109973;19;20584;-72
2023/10/07 01:42:39;;;;;;;6.15;3.45;;;;;;;12.74;100.00;98962.88;6109723;19;20006;-72
2023/10/07 01:44:41;;;;;;;7.18;2.90;;;;;;;12.71;100.00;98972.78;6109247;19;20014;-72
2023/10/07 01:46:43;;;;;;;8.88;3.83;;;;;;;12.77;100.00;98979.59;6109870;19;20002;-72
2023/10/07 01:48:54;;;;;;;5.20;3.20;;;;;;;12.77;100.00;98979.59;6109106;19;20030;-71
2023/10/07 01:50:55;;;;;;;8.40;3.75;;;;;;;12.80;100.00;98953.84;6100424;19;20414;-72
2023/10/07 01:52:56;;;;;;;6.57;2.83;;;;;;;12.76;100.00;98953.03;6103309;19;20010;-72
2023/10/07 01:54:58;;;;;;;5.82;3.03;;;;;;;12.73;100.00;98944.63;6101990;19;20007;-72
2023/10/07 01:57:04;;;;;;;8.18;3.10;;;;;;;12.71;100.00;98944.22;6103069;19;20014;-72
2023/10/07 02:01:16;;;;;;;5.97;3.03;;;;;;;12.67;100.00;98944.19;6100743;19;20011;-72
2023/10/07 02:03:21;;;;;;;7.18;3.10;;;;;;;12.72;100.00;98943.84;6102563;19;20015;-72
2023/10/07 02:05:25;;;;;;;7.32;3.50;;;;;;;12.72;100.00;98935.50;6102126;19;20013;-72
2023/10/07 02:07:27;;;;;;;7.50;3.42;;;;;;;12.78;100.00;98945.09;6103019;19;20009;-72
2023/10/07 02:09:27;;;;;;;7.35;3.05;;;;;;;12.85;100.00;98941.59;6102483;19;20495;-72
2023/10/07 02:11:29;;;;;;;5.78;2.92;;;;;;;12.93;100.00;98949.63;6101689;19;20006;-72
2023/10/07 02:13:29;;;;;;;8.33;3.20;;;;;;;12.98;100.00;98956.78;6102638;19;20007;-72
2023/10/07 02:15:36;;;;;;;4.68;2.72;;;;;;;12.99;100.00;98954.81;6102164;19;20251;-72
2023/10/07 02:17:37;;;;;;;7.05;2.63;;;;;;;13.01;100.00;98952.47;6102005;19;20745;-72
2023/10/07 02:19:40;;;;;;;7.35;2.90;;;;;;;13.00;100.00;98946.13;6102573;19;20045;-72
2023/10/07 02:21:41;;;;;;;5.35;2.85;;;;;;;13.00;100.00;98942.53;6100649;19;20006;-72
2023/10/07 02:23:43;;;;;;;6.63;3.50;;;;;;;12.94;100.00;98937.31;6102563;19;20344;-72
2023/10/07 02:25:49;;;;;;;6.93;3.40;;;;;;;12.94;100.00;98933.75;6100750;19;20028;-72
2023/10/07 02:27:49;;;;;;;10.38;3.10;;;;;;;12.94;100.00;98933.75;6102921;19;19998;-72
2023/10/07 02:29:57;;;;;;;7.75;2.83;;;;;;;12.96;100.00;98938.91;6102104;19;20128;-72
2023/10/07 02:32:14;;;;;;;6.57;3.22;;;;;;;12.92;100.00;98930.56;6100971;19;20023;-72
2023/10/07 02:34:28;;;;;;;6.32;2.95;;;;;;;12.94;100.00;98936.53;5998397;19;2006544;-72
2023/10/07 02:36:31;;;;;;;7.30;2.97;;;;;;;12.92;100.00;98925.81;6102723;19;20517;-72
2023/10/07 02:38:52;;;;;;;;;;;;;;;12.90;100.00;98925.38;6102452;19;20112;-72
2023/10/07 02:40:52;;;;;;;4.95;3.38;;;;;;;12.89;100.00;98909.88;6099284;19;19917;-72
2023/10/07 02:42:54;;;;;;;8.60;3.13;;;;;;;12.88;100.00;98905.53;6101605;19;20014;-72
2023/10/07 02:45:31;;;;;;;6.43;3.00;;;;;;;12.94;100.00;98895.66;6100782;19;20009;-72
2023/10/07 02:47:26;;;;;;;11.65;3.22;;;;;;;12.88;100.00;98890.84;6100132;19;20006;-72
2023/10/07 02:49:26;;;;;;;;;;;;;;;12.89;100.00;98895.22;6102607;19;20006;-72
2023/10/07 02:51:27;;;;;;;4.97;2.88;;;;;;;12.83;100.00;98899.53;6106680;19;19911;-72
2023/10/07 02:53:27;;;;;;;5.93;2.85;;;;;;;12.85;100.00;98903.53;6109577;19;20011;-72
2023/10/07 02:55:29;;;;;;;6.40;3.47;;;;;;;12.90;100.00;98903.16;6107687;19;20003;-72
2023/10/07 02:57:39;;;;;;;5.28;2.88;;;;;;;12.94;100.00;98912.34;6108563;19;20014;-72
2023/10/07 02:59:50;;;;;;;5.70;2.72;;;;;;;12.91;100.00;98912.31;6105059;19;20450;-72
2023/10/07 03:02:12;;;;;;;7.05;2.80;;;;;;;12.84;100.00;98910.25;6106847;19;20007;-72
2023/10/07 03:04:11;;;;;;;6.85;2.95;;;;;;;12.84;100.00;98918.59;6106787;19;20014;-72
2023/10/07 03:06:11;;;;;;;5.00;2.80;;;;;;;12.83;100.00;98919.78;6107649;19;20003;-72
2023/10/07 03:08:21;;;;;;;5.32;2.92;;;;;;;12.78;100.00;98920.13;6107470;19;20004;-72
2023/10/07 03:11:22;;;;;;;5.03;2.70;;;;;;;12.82;100.00;98925.69;6107765;19;20336;-71
2023/10/07 03:12:56;;;;;;;6.50;2.90;;;;;;;12.78;100.00;98931.22;6107633;19;20006;-72
2023/10/07 03:14:59;;;;;;;7.55;3.40;;;;;;;12.75;100.00;98925.66;6108409;19;20029;-72
2023/10/07 03:17:00;;;;;;;7.70;3.13;;;;;;;12.70;100.00;98920.44;6108236;19;20384;-72
2023/10/07 03:21:06;;;;;;;5.45;3.72;;;;;;;12.76;100.00;98919.69;6107121;19;20031;-72
2023/10/07 03:23:18;;;;;;;6.05;2.65;;;;;;;12.70;100.00;98923.19;6108401;19;20006;-72
2023/10/07 03:25:18;;;;;;;5.80;2.70;;;;;;;12.70;100.00;98921.22;6106746;19;20022;-72
2023/10/07 03:27:25;;;;;;;6.07;2.72;;;;;;;12.66;100.00;98909.28;6107547;19;20007;-72
2023/10/07 03:29:30;;;;;;;10.32;3.70;;;;;;;12.61;100.00;98907.66;6107641;19;19999;-72
2023/10/07 03:31:47;;;;;;;6.63;3.08;;;;;;;12.64;100.00;98901.31;6106189;19;20014;-72
2023/10/07 03:33:58;;;;;;;4.70;2.78;;;;;;;12.64;100.00;98900.53;6111164;19;20006;-72
2023/10/07 03:38:08;;;;;;;7.47;2.97;;;;;;;12.56;100.00;98896.09;6112574;19;20003;-72
2023/10/07 03:42:38;;;;;;;5.15;2.55;;;;;;;12.64;100.00;98894.97;6111263;19;20014;-72
2023/10/07 03:44:39;;;;;;;6.00;2.70;;;;;;;12.61;100.00;98881.88;6112888;19;20028;-72
2023/10/07 03:46:40;;;;;;;5.32;2.92;;;;;;;12.59;100.00;98887.00;6112759;19;20074;-72
2023/10/07 03:48:43;;;;;;;5.63;3.15;;;;;;;12.70;100.00;98882.34;6112204;19;20013;-72
2023/10/07 03:50:43;;;;;;;5.07;2.92;;;;;;;12.69;100.00;98889.09;6113054;19;20002;-72
2023/10/07 03:52:49;;;;;;;7.75;3.03;;;;;;;12.65;100.00;98891.81;6112449;19;20006;-72
2023/10/07 03:54:49;;;;;;;5.25;2.65;;;;;;;12.61;100.00;98887.44;6113287;19;20239;-72
2023/10/07 03:56:51;;;;;;;4.38;2.92;;;;;;;12.61;100.00;98892.97;6112624;19;20371;-72
2023/10/07 03:58:53;;;;;;;4.97;3.08;;;;;;;12.57;100.00;98886.56;6113016;19;20011;-72
2023/10/07 04:00:56;;;;;;;5.17;2.33;;;;;;;12.62;100.00;98883.47;6108915;19;20006;-72
2023/10/07 04:03:07;;;;;;;4.18;2.85;;;;;;;12.61;100.00;98882.66;6112249;19;20011;-72
2023/10/07 04:05:12;;;;;;;4.88;2.58;;;;;;;12.55;100.00;98889.75;6111834;19;20038;-72
2023/10/07 04:07:13;;;;;;;6.15;2.83;;;;;;;12.57;100.00;98889.34;6112022;19;20026;-72
2023/10/07 04:09:13;;;;;;;6.15;2.80;;;;;;;12.72;100.00;98879.19;6111887;19;20007;-72
2023/10/07 04:11:16;;;;;;;5.50;2.83;;;;;;;12.77;100.00;98881.63;6109982;19;20038;-72
2023/10/07 04:13:23;;;;;;;7.00;2.75;;;;;;;12.74;100.00;98887.94;6112255;19;20089;-72
2023/10/07 04:15:29;;;;;;;4.50;2.78;;;;;;;12.71;100.00;98881.16;6110796;19;20459;-72
2023/10/07 04:17:31;;;;;;;3.30;2.22;;;;;;;12.68;100.00;98892.25;6113023;19;20017;-72
2023/10/07 04:19:38;;;;;;;4.53;2.65;;;;;;;12.74;100.00;98899.03;6111632;19;20444;-72
2023/10/07 04:21:41;;;;;;;9.48;3.08;;;;;;;12.76;100.00;98902.25;6111860;19;20312;-72
2023/10/07 04:23:44;;;;;;;9.57;2.60;;;;;;;12.71;100.00;98914.50;6112211;19;20027;-72
2023/10/07 04:25:45;;;;;;;;;;;;;;;12.71;100.00;98931.16;6112934;19;20010;-72
2023/10/07 04:27:45;;;;;;;6.22;2.83;;;;;;;12.78;100.00;98925.66;6111215;19;20462;-72
2023/10/07 04:29:46;;;;;;;8.93;2.90;;;;;;;12.79;100.00;98923.69;6110548;19;20034;-72
2023/10/07 04:31:53;;;;;;;5.57;2.60;;;;;;;12.81;100.00;98927.66;6110435;19;20006;-71
2023/10/07 04:33:53;;;;;;;6.05;3.00;;;;;;;12.77;100.00;98924.06;6111956;19;20007;-71
2023/10/07 04:36:00;;;;;;;5.57;2.70;;;;;;;12.72;100.00;98932.75;6111806;19;20007;-71
2023/10/07 04:38:18;;;;;;;8.23;3.05;;;;;;;12.72;100.00;98921.63;6111111;19;20006;-71
2023/10/07 04:42:22;;;;;;;9.23;3.33;;;;;;;12.68;100.00;98925.56;6110364;19;20490;-71
2023/10/07 04:45:15;;;;;;;5.50;2.85;;;;;;;12.72;100.00;98934.72;6109683;19;20002;-72
2023/10/07 04:46:45;;;;;;;4.07;2.60;;;;;;;12.68;100.00;98933.91;6111518;19;20014;-72
2023/10/07 04:48:54;;;;;;;4.93;2.70;;;;;;;12.67;100.00;98930.31;6112100;19;20010;-72
2023/10/07 04:51:04;;;;;;;5.95;2.95;;;;;;;12.63;100.00;98930.28;6109601;19;20013;-72
2023/10/07 04:53:05;;;;;;;8.82;3.20;;;;;;;12.64;100.00;98923.53;6111412;19;20002;-72
2023/10/07 04:55:19;;;;;;;7.10;2.90;;;;;;;12.64;100.00;98906.88;6111124;19;20003;-72
2023/10/07 04:57:39;;;;;;;3.83;2.60;;;;;;;12.65;100.00;98913.22;6111416;19;20054;-72
2023/10/07 04:59:45;;;;;;;7.95;3.17;;;;;;;12.64;100.00;98909.66;6111182;19;20007;-72
2023/10/07 05:01:52;;;;;;;8.82;2.67;;;;;;;12.65;100.00;98916.00;6110241;19;20006;-72
2023/10/07 05:03:55;;;;;;;5.53;2.75;;;;;;;12.72;100.00;98906.94;6110470;19;21244;-72
2023/10/07 05:05:55;;;;;;;;;;;;;;;12.71;100.00;98917.25;6111991;19;20019;-72
2023/10/07 05:07:58;;;;;;;5.03;3.05;;;;;;;12.70;100.00;98903.75;6110696;19;20231;-72
2023/10/07 05:10:01;;;;;;;4.65;3.00;;;;;;;12.72;100.00;98907.75;6111116;19;20003;-72
2023/10/07 05:12:06;;;;;;;5.25;3.00;;;;;;;12.70;100.00;98909.31;6107880;19;20007;-72
2023/10/07 05:14:08;;;;;;;7.70;3.13;;;;;;;12.68;100.00;98903.34;6108338;19;20078;-72
2023/10/07 05:16:08;;;;;;;7.50;3.30;;;;;;;12.71;100.00;98900.59;6109492;19;20027;-72
2023/10/07 05:18:12;;;;;;;7.10;3.28;;;;;;;12.70;100.00;98898.22;6110848;19;20007;-72
2023/10/07 05:20:27;;;;;;;4.90;2.97;;;;;;;12.73;100.00;98905.78;6110290;19;20022;-72
2023/10/07 05:22:27;;;;;;;5.07;2.80;;;;;;;12.77;100.00;98903.84;6108925;19;20005;-72
2023/10/07 05:24:32;;;;;;;7.50;3.47;;;;;;;12.80;100.00;98889.19;6110561;19;20222;-72
2023/10/07 05:26:33;;;;;;;8.45;3.25;;;;;;;12.74;100.00;98899.81;6110399;19;20042;-72
2023/10/07 05:28:33;;;;;;;5.63;3.28;;;;;;;12.81;100.00;98918.53;6110038;19;20014;-72
2023/10/07 05:30:36;;;;;;;5.85;3.00;;;;;;;12.89;100.00;98926.56;6109708;19;20011;-72
2023/10/07 05:32:37;;;;;;;4.50;3.03;;;;;;;12.87;100.00;98917.03;6110665;19;20014;-72
2023/10/07 05:34:37;;;;;;;5.13;2.97;;;;;;;12.97;100.00;98912.75;6110137;19;20017;-72
2023/10/07 05:36:38;;;;;;;5.47;3.22;;;;;;;12.95;100.00;98885.34;6112071;19;20391;-72
2023/10/07 05:38:53;;;;;;;7.40;3.50;;;;;;;12.93;100.00;98877.41;6109366;19;20002;-71
2023/10/07 05:40:53;;;;;;;6.63;3.22;;;;;;;12.91;100.00;98871.44;6108698;19;20070;-72
2023/10/07 05:42:53;;;;;;;7.05;3.40;;;;;;;12.94;100.00;98875.44;6110792;19;20053;-72
2023/10/07 05:44:54;;;;;;;6.50;3.30;;;;;;;12.92;100.00;98878.59;6110187;19;20026;-72
2023/10/07 05:46:54;;;;;;;5.22;3.38;;;;;;;12.88;100.00;98868.63;6110673;19;20446;-72
2023/10/07 05:48:54;;;;;;;8.52;3.47;;;;;;;12.92;100.00;98877.81;6102799;19;20761;-72
2023/10/07 05:50:55;;;;;;;8.23;3.45;;;;;;;12.90;100.00;98875.38;6107024;19;20014;-72
2023/10/07 05:52:55;;;;;;;5.57;3.03;;;;;;;12.91;100.00;98876.22;6110058;19;20455;-72
2023/10/07 05:54:56;;;;;;;6.82;3.35;;;;;;;12.92;100.00;98873.03;6110183;19;20530;-72
2023/10/07 05:57:03;;;;;;;6.00;3.22;;;;;;;12.99;100.00;98882.59;6107942;19;22696;-72
2023/10/07 05:59:06;;;;;;;5.30;2.85;;;;;;;12.98;100.00;98886.56;6110626;19;20018;-71
2023/10/07 06:01:12;;;;;;;;;;;;;;;12.96;100.00;98889.72;6109514;19;20002;-72
2023/10/07 06:03:12;;;;;;;5.00;3.38;;;;;;;12.96;100.00;98888.94;6110315;19;19918;-72
2023/10/07 06:05:13;;;;;;;7.95;3.53;;;;;;;12.95;100.00;98896.47;6107786;19;20477;-72
2023/10/07 06:07:14;;;;;;;7.72;3.72;;;;;;;12.97;100.00;98890.53;6109322;19;20327;-72
2023/10/07 06:09:15;;;;;;;6.43;3.58;;;;;;;12.96;100.00;98902.81;6107566;19;20020;-72
2023/10/07 06:11:16;;;;;;;6.38;3.22;;;;;;;12.97;100.00;98904.41;6106819;19;20007;-73
2023/10/07 06:13:16;;;;;;;7.63;2.90;;;;;;;12.97;100.00;98904.41;6109342;19;20402;-73
2023/10/07 06:15:18;;;;;;;4.88;2.97;;;;;;;12.93;100.00;98907.97;6109067;19;20011;-72
2023/10/07 06:17:20;;;;;;;6.63;3.17;;;;;;;12.94;100.00;98911.53;6109455;19;20025;-72
2023/10/07 06:19:20;;;;;;;5.78;2.90;;;;;;;12.94;100.00;98917.88;6105464;19;20009;-72
2023/10/07 06:21:27;;;;;;;6.97;3.42;;;;;;;12.96;100.00;98922.25;6107139;19;20003;-72
2023/10/07 06:23:29;;;;;;;5.40;2.97;;;;;;;12.99;100.00;98924.25;6109888;19;20006;-73
2023/10/07 06:25:36;;;;;;;7.38;3.58;;;;;;;13.03;100.00;98931.44;6108083;19;20007;-72
2023/10/07 06:27:38;;;;;;;7.20;3.20;;;;;;;13.02;100.00;98938.19;6109366;19;20006;-72
2023/10/07 06:29:43;;;;;;;7.65;3.20;;;;;;;13.01;100.00;98928.25;6107243;19;20030;-73
2023/10/07 06:31:48;;;;;;;7.93;3.83;;;;;;;13.02;100.00;98929.06;6107730;19;20010;-72
2023/10/07 06:36:12;;;;;;;6.47;3.65;;;;;;;13.06;100.00;98952.09;6108647;19;20112;-73
2023/10/07 06:38:19;;;;;;;6.85;3.17;;;;;;;13.07;100.00;98951.72;6109424;19;19999;-73
2023/10/07 06:42:24;;;;;;;8.90;3.53;;;;;;;13.18;100.00;98944.28;6106921;19;20007;-72
2023/10/07 06:44:25;;;;;;;7.03;3.50;;;;;;;13.20;100.00;98941.94;6109106;19;20018;-73
2023/10/07 06:46:29;;;;;;;5.85;3.08;;;;;;;13.25;100.00;98940.00;6106197;19;20020;-72
2023/10/07 06:48:30;;;;;;;6.15;3.38;;;;;;;13.24;100.00;98928.09;6108375;19;20007;-72
2023/10/07 06:50:31;;;;;;;5.43;2.97;;;;;;;13.28;100.00;98936.44;6100535;19;20357;-72
2023/10/07 06:52:32;;;;;;;7.03;3.65;;;;;;;13.31;100.00;98936.47;6100568;19;20030;-73
2023/10/07 06:54:33;;;;;;;6.70;3.53;;;;;;;13.35;100.00;98930.94;6099188;19;20014;-73
2023/10/07 06:56:34;;;;;;;7.03;3.60;;;;;;;13.37;100.00;98923.03;6101685;19;20533;-73
2023/10/07 06:58:35;;;;;;;7.65;3.10;;;;;;;13.41;100.00;98921.06;6100137;19;20010;-73
2023/10/07 07:00:48;;;;;;;6.73;3.93;;;;;;;13.43;100.00;98911.16;6100659;19;20021;-73
2023/10/07 07:02:59;;;;;;;6.35;3.47;;;;;;;13.47;100.00;98909.19;6101291;19;20006;-73
2023/10/07 07:04:59;;;;;;;4.85;3.17;;;;;;;13.53;100.00;98915.19;6101938;19;20024;-72
2023/10/07 07:07:18;;;;;;;10.32;4.47;;;;;;;13.53;100.00;98923.53;6099460;19;20088;-72
2023/10/07 07:11:37;;;;;;;6.85;3.60;;;;;;;13.59;100.00;98926.75;6099783;19;20059;-73
2023/10/07 07:13:40;;;;;;;7.05;3.28;;;;;;;13.59;100.00;98929.53;6099818;19;20643;-73
2023/10/07 07:15:45;;;;;;;6.85;3.35;;;;;;;13.58;100.00;98933.50;6100116;19;20259;-73
2023/10/07 07:17:46;;;;;;;6.78;3.67;;;;;;;13.59;100.00;98947.00;6100925;19;20036;-73
2023/10/07 07:19:52;;;;;;;5.63;3.90;;;;;;;13.58;100.00;98945.41;6098992;19;20006;-73
2023/10/07 07:21:57;;;;;;;6.72;3.63;;;;;;;13.61;100.00;98950.19;6099051;19;20066;-73
2023/10/07 07:23:58;;;;;;;7.55;3.40;;;;;;;13.63;100.00;98955.38;6099224;19;20019;-73
2023/10/07 07:28:09;;;;;;;10.20;4.32;;;;;;;13.66;100.00;98955.41;6098862;19;20003;-72
2023/10/07 07:30:19;;;;;;;13.18;3.88;;;;;;;13.70;100.00;98938.72;6099231;19;20021;-73
2023/10/07 07:32:19;;;;;;;8.63;3.42;;;;;;;13.71;100.00;98943.09;6099205;19;19999;-73
2023/10/07 07:34:27;;;;;;;10.10;4.25;;;;;;;13.77;100.00;98947.13;6100014;19;20493;-73
2023/10/07 07:36:42;;;;;;;5.95;3.60;;;;;;;13.79;100.00;98941.97;6099599;19;20010;-72
2023/10/07 07:38:44;;;;;;;6.72;3.63;;;;;;;13.83;100.00;98942.81;6099059;19;20093;-73
2023/10/07 07:40:45;;;;;;;7.57;3.55;;;;;;;13.85;100.00;98945.97;6098700;19;20212;-73
2023/10/07 07:42:55;;;;;;;7.10;3.67;;;;;;;13.91;100.00;98943.63;6099397;19;20026;-73
2023/10/07 07:44:58;;;;;;;7.15;3.90;;;;;;;14.00;100.00;98946.88;6098882;19;20022;-73
2023/10/07 07:47:02;;;;;;;7.55;3.53;;;;;;;14.02;100.00;98938.91;6100178;19;20283;-73
2023/10/07 07:49:06;;;;;;;7.57;3.60;;;;;;;14.05;100.00;98954.81;6100315;19;20027;-73
2023/10/07 07:51:07;;;;;;;8.68;3.50;;;;;;;14.09;100.00;98949.28;6104906;19;20489;-73
2023/10/07 07:53:08;;;;;;;6.45;3.90;;;;;;;14.17;100.00;98950.91;6106861;19;20002;-73
2023/10/07 07:55:12;;;;;;;7.90;4.28;;;;;;;14.22;100.00;98947.75;6106744;19;19999;-72
2023/10/07 07:57:16;;;;;;;6.85;3.47;;;;;;;14.23;100.00;98952.94;6106649;19;20014;-72
2023/10/07 07:59:17;;;;;;;9.35;4.68;;;;;;;14.31;100.00;98959.31;6107586;19;20494;-73
2023/10/07 08:01:22;;;;;;;9.23;4.30;;;;;;;14.33;100.00;98957.75;6105249;19;20007;-73
2023/10/07 08:03:22;;;;;;;7.55;4.10;;;;;;;14.36;100.00;98966.50;6105667;19;20247;-73
2023/10/07 08:05:26;;;;;;;5.32;3.75;;;;;;;14.40;100.00;98965.34;6106807;19;20074;-74
2023/10/07 08:07:29;;;;;;;11.18;3.90;;;;;;;14.36;100.00;98975.66;6105325;19;20471;-74
2023/10/07 08:09:31;;;;;;;9.87;3.87;;;;;;;14.44;100.00;98976.47;6106501;19;20010;-75
2023/10/07 08:11:35;;;;;;;7.22;4.10;;;;;;;14.40;100.00;98970.09;6103553;19;20024;-73
2023/10/07 08:13:35;;;;;;;7.95;4.35;;;;;;;14.40;100.00;98973.69;6105947;19;20009;-72
2023/10/07 08:15:40;;;;;;;6.65;3.83;;;;;;;14.39;100.00;98966.50;6106596;19;20458;-73
2023/10/07 08:17:45;;;;;;;7.35;3.80;;;;;;;14.39;100.00;98974.84;6105600;19;20859;-72
2023/10/07 08:19:49;;;;;;;9.85;4.13;;;;;;;14.39;100.00;98982.41;6110087;19;20093;-73
2023/10/07 08:21:54;;;;;;;7.57;4.43;;;;;;;14.40;100.00;98992.34;6109326;19;20475;-72
2023/10/07 08:23:54;;;;;;;7.35;4.40;;;;;;;14.41;100.00;98994.78;6109787;19;20003;-73
2023/10/07 08:26:06;;;;;;;8.63;4.50;;;;;;;14.37;100.00;98982.81;6110697;19;19999;-73
2023/10/07 08:28:39;;;;;;;9.82;5.90;;;;;;;14.38;100.00;98983.59;6111291;19;20538;-73
2023/10/07 08:30:46;;;;;;;6.88;4.00;;;;;;;14.42;100.00;98984.44;6110638;19;20013;-73
2023/10/07 08:32:48;;;;;;;8.73;4.32;;;;;;;14.42;100.00;98981.66;6111725;19;20755;-73
2023/10/07 08:34:48;;;;;;;6.10;4.20;;;;;;;14.52;100.00;98987.28;6112277;19;20327;-73
2023/10/07 08:36:49;;;;;;;7.47;4.07;;;;;;;14.59;100.00;98997.66;6111670;19;20014;-73
2023/10/07 08:38:50;;;;;;;7.13;4.47;;;;;;;14.59;100.00;99001.22;6111766;19;20019;-73
2023/10/07 08:41:04;;;;;;;7.03;4.75;;;;;;;14.67;100.00;98998.47;6111668;19;20035;-73
2023/10/07 08:43:14;;;;;;;6.65;4.00;;;;;;;14.67;100.00;99002.06;6112105;19;20347;-73
2023/10/07 08:45:23;;;;;;;5.93;4.07;;;;;;;14.65;100.00;99009.22;6112175;19;20397;-73
2023/10/07 08:47:25;;;;;;;7.25;4.30;;;;;;;14.64;100.00;98985.31;6111959;19;20349;-73
2023/10/07 08:49:28;;;;;;;8.13;3.80;;;;;;;14.63;100.00;98995.66;6108576;19;20559;-72
2023/10/07 08:51:33;;;;;;;7.75;4.15;;;;;;;14.67;100.00;99001.25;6108118;19;20013;-73
2023/10/07 08:53:36;;;;;;;6.72;3.80;;;;;;;14.68;100.00;99003.66;6111915;19;20006;-72
2023/10/07 08:55:39;;;;;;;7.18;4.45;;;;;;;14.71;100.00;99004.84;6111088;19;20099;-73
2023/10/07 08:57:40;;;;;;;9.18;5.10;;;;;;;14.75;100.00;99002.88;6111644;19;20017;-72
2023/10/07 08:59:42;;;;;;;12.68;5.10;;;;;;;14.81;100.00;98992.94;6111143;19;20006;-73
2023/10/07 09:01:44;;;;;;;8.10;4.38;;;;;;;14.85;100.00;98985.38;6108556;19;20957;-73
2023/10/07 09:03:49;;;;;;;8.15;4.03;;;;;;;14.96;100.00;98980.63;6110599;19;20006;-73
2023/10/07 09:05:50;;;;;;;7.53;4.15;;;;;;;14.99;100.00;98979.06;6107863;19;20015;-73
2023/10/07 09:07:50;;;;;;;11.57;3.95;;;;;;;15.05;100.00;98981.03;6107552;19;20335;-73
2023/10/07 09:09:52;;;;;;;11.13;4.32;;;;;;;15.07;100.00;98984.25;6109925;19;20329;-73
2023/10/07 09:11:54;;;;;;;9.63;4.50;;;;;;;15.14;100.00;98981.47;6109847;19;20106;-73
2023/10/07 09:13:55;;;;;;;6.50;3.42;;;;;;;15.17;100.00;98991.03;6110840;19;20385;-73
2023/10/07 09:16:07;;;;;;;6.22;3.58;;;;;;;15.22;100.00;98993.41;6111087;19;20026;-72
2023/10/07 09:18:10;;;;;;;8.80;4.05;;;;;;;15.26;100.00;98988.66;6110015;19;20014;-73
2023/10/07 09:20:17;;;;;;;9.05;4.00;;;;;;;15.23;100.00;98994.22;6109797;19;20023;-72
2023/10/07 09:22:24;;;;;;;7.35;4.18;;;;;;;15.25;100.00;98989.84;6108975;19;20022;-73
2023/10/07 09:24:24;;;;;;;6.90;3.90;;;;;;;15.25;100.00;98989.84;6110552;19;20024;-73
2023/10/07 09:26:34;;;;;;;7.25;3.65;;;;;;;15.24;100.00;98993.81;6111053;19;20013;-72
2023/10/07 09:28:38;;;;;;;9.80;3.85;;;;;;;15.24;100.00;98993.81;6110758;19;20014;-73
2023/10/07 09:32:44;;;;;;;8.73;4.90;;;;;;;15.45;100.00;98995.81;6109635;19;20404;-73
2023/10/07 09:34:47;;;;;;;6.90;4.07;;;;;;;15.54;100.00;98995.41;6109822;19;20010;-73
2023/10/07 09:36:47;;;;;;;6.25;3.53;;;;;;;15.64;100.00;99003.84;6110431;19;20066;-73
2023/10/07 09:39:06;;;;;;;9.10;3.95;;;;;;;15.68;100.00;98987.06;6108828;19;20002;-73
2023/10/07 09:41:12;;;;;;;8.10;3.63;;;;;;;15.65;100.00;98980.31;6109293;19;20015;-73
2023/10/07 09:43:25;;;;;;;10.68;4.07;;;;;;;15.62;100.00;98978.31;6111169;19;20010;-72
2023/10/07 09:45:28;;;;;;;6.35;3.75;;;;;;;15.63;100.00;98981.88;6109936;19;20013;-72
2023/10/07 09:47:28;;;;;;;7.32;3.75;;;;;;;15.58;100.00;98982.28;6108234;19;20011;-72
2023/10/07 09:49:30;;;;;;;6.75;3.42;;;;;;;15.58;100.00;98982.28;6108729;19;20006;-72
2023/10/07 09:51:41;;;;;;;6.53;4.15;;;;;;;15.57;100.00;98975.91;6108462;19;20555;-72
2023/10/07 09:54:10;;;;;;;7.30;3.72;;;;;;;15.59;100.00;98967.94;6109192;19;20066;-72
2023/10/07 09:56:23;;;;;;;7.75;3.30;;;;;;;15.69;100.00;98960.78;6109178;19;20340;-72
2023/10/07 09:58:26;;;;;;;6.68;3.50;;;;;;;15.74;100.00;98971.53;6110087;19;20014;-72
2023/10/07 10:02:59;;;;;;;5.75;4.20;;;;;;;15.83;100.00;98957.16;6109289;19;20107;-72
2023/10/07 10:05:15;;;;;;;7.13;3.40;;;;;;;15.81;100.00;98965.94;6109125;19;20013;-73
2023/10/07 10:07:47;;;;;;;6.18;3.38;;;;;;;15.75;100.00;98942.44;6109244;19;20864;-73
2023/10/07 10:12:18;;;;;;;7.93;4.03;;;;;;;15.83;100.00;98932.06;6105871;19;20611;-72